FIN811 EFHK-ESSA
Flight info
| Callsign | FIN811 |
|---|---|
| Flight time | 0h 44m |
| Altitude | 30000 |
| Route | ADIVO Y365 POGOK DCT RUNGA N872 XILAN |
| Aircraft | A319/M-SDE3FGHIRWY/LB1 |
Departure
| Time | 2026-04-21 12:19 |
|---|---|
| Airport | Helsinki Vantaa Airport (EFHK) |
Arrival
| Time | 2026-04-21 13:03 |
|---|---|
| Airport | Stockholm-Arlanda Airport (ESSA) |
| Time | Latitude | Longitude | Altitude | Speed | Heading |
|---|---|---|---|---|---|
| 2026-04-21 11:54 | 60.31862 | 24.96993 | 188 ft | 0 kts | 242° |
| 2026-04-21 12:11 | 60.31863 | 24.96998 | 188 ft | 2 kts | 242° |
| 2026-04-21 12:11 | 60.31875 | 24.97044 | 200 ft | 4 kts | 242° |
| 2026-04-21 12:11 | 60.31886 | 24.97088 | 197 ft | 3 kts | 243° |
| 2026-04-21 12:11 | 60.31892 | 24.97134 | 194 ft | 4 kts | 309° |
| 2026-04-21 12:12 | 60.31870 | 24.97156 | 197 ft | 4 kts | 349° |
| 2026-04-21 12:12 | 60.31851 | 24.97166 | 200 ft | 0 kts | 332° |
| 2026-04-21 12:13 | 60.31853 | 24.97164 | 201 ft | 2 kts | 332° |
| 2026-04-21 12:14 | 60.31881 | 24.97133 | 200 ft | 8 kts | 332° |
| 2026-04-21 12:14 | 60.31947 | 24.97065 | 194 ft | 13 kts | 332° |
| 2026-04-21 12:14 | 60.32042 | 24.96964 | 188 ft | 17 kts | 331° |
| 2026-04-21 12:14 | 60.32146 | 24.96847 | 194 ft | 18 kts | 331° |
| 2026-04-21 12:15 | 60.32246 | 24.96706 | 192 ft | 17 kts | 291° |
| 2026-04-21 12:15 | 60.32180 | 24.96514 | 188 ft | 18 kts | 227° |
| 2026-04-21 12:15 | 60.32097 | 24.96329 | 196 ft | 18 kts | 229° |
| 2026-04-21 12:15 | 60.32008 | 24.96133 | 197 ft | 19 kts | 227° |
| 2026-04-21 12:16 | 60.31918 | 24.95935 | 200 ft | 20 kts | 227° |
| 2026-04-21 12:16 | 60.31823 | 24.95726 | 188 ft | 21 kts | 227° |
| 2026-04-21 12:16 | 60.31725 | 24.95509 | 188 ft | 21 kts | 227° |
| 2026-04-21 12:16 | 60.31624 | 24.95286 | 188 ft | 22 kts | 227° |
| 2026-04-21 12:17 | 60.31520 | 24.95056 | 188 ft | 22 kts | 227° |
| 2026-04-21 12:17 | 60.31419 | 24.94834 | 193 ft | 19 kts | 232° |
| 2026-04-21 12:17 | 60.31455 | 24.94619 | 188 ft | 18 kts | 318° |
| 2026-04-21 12:17 | 60.31527 | 24.94527 | 191 ft | 12 kts | 10° |
| 2026-04-21 12:18 | 60.31581 | 24.94634 | 191 ft | 12 kts | 46° |
| 2026-04-21 12:18 | 60.31733 | 24.94964 | 199 ft | 70 kts | 47° |
| 2026-04-21 12:18 | 60.32235 | 24.96076 | 194 ft | 141 kts | 47° |
| 2026-04-21 12:18 | 60.33000 | 24.97763 | 479 ft | 170 kts | 45° |
| 2026-04-21 12:19 | 60.33796 | 24.99561 | 1317 ft | 173 kts | 46° |
| 2026-04-21 12:19 | 60.34631 | 25.01412 | 2029 ft | 187 kts | 44° |
| 2026-04-21 12:19 | 60.35242 | 25.02746 | 2381 ft | 202 kts | 45° |
| 2026-04-21 12:19 | 60.36626 | 25.05777 | 3098 ft | 236 kts | 45° |
| 2026-04-21 12:20 | 60.37382 | 25.07438 | 3636 ft | 247 kts | 45° |
| 2026-04-21 12:20 | 60.38562 | 25.10044 | 4652 ft | 253 kts | 46° |
| 2026-04-21 12:20 | 60.39935 | 25.12269 | 5696 ft | 256 kts | 22° |
| 2026-04-21 12:20 | 60.41681 | 25.12910 | 6807 ft | 257 kts | 2° |
| 2026-04-21 12:21 | 60.43472 | 25.12972 | 7906 ft | 258 kts | 1° |
| 2026-04-21 12:21 | 60.45275 | 25.13017 | 8965 ft | 260 kts | 1° |
| 2026-04-21 12:21 | 60.47094 | 25.13031 | 9998 ft | 264 kts | 358° |
| 2026-04-21 12:21 | 60.48860 | 25.11931 | 10869 ft | 274 kts | 331° |
| 2026-04-21 12:22 | 60.50210 | 25.09098 | 11610 ft | 295 kts | 304° |
| 2026-04-21 12:22 | 60.50803 | 25.04897 | 12015 ft | 326 kts | 279° |
| 2026-04-21 12:22 | 60.50923 | 25.00222 | 12761 ft | 336 kts | 275° |
| 2026-04-21 12:22 | 60.50902 | 24.95437 | 13626 ft | 342 kts | 273° |
| 2026-04-21 12:23 | 60.50801 | 24.90573 | 14417 ft | 349 kts | 268° |
| 2026-04-21 12:23 | 60.50275 | 24.85701 | 15149 ft | 359 kts | 256° |
| 2026-04-21 12:23 | 60.49296 | 24.80993 | 15888 ft | 366 kts | 247° |
| 2026-04-21 12:23 | 60.48190 | 24.76326 | 16623 ft | 370 kts | 248° |
| 2026-04-21 12:24 | 60.47089 | 24.71564 | 17353 ft | 374 kts | 248° |
| 2026-04-21 12:24 | 60.45991 | 24.66763 | 18095 ft | 378 kts | 249° |
| 2026-04-21 12:24 | 60.44875 | 24.61891 | 18782 ft | 382 kts | 248° |
| 2026-04-21 12:24 | 60.43742 | 24.56997 | 19423 ft | 386 kts | 248° |
| 2026-04-21 12:25 | 60.42588 | 24.52050 | 20077 ft | 390 kts | 248° |
| 2026-04-21 12:25 | 60.41417 | 24.47067 | 20709 ft | 393 kts | 248° |
| 2026-04-21 12:25 | 60.40234 | 24.42050 | 21351 ft | 397 kts | 248° |
| 2026-04-21 12:25 | 60.39035 | 24.36989 | 21991 ft | 401 kts | 248° |
| 2026-04-21 12:26 | 60.37838 | 24.31951 | 22619 ft | 404 kts | 248° |
| 2026-04-21 12:26 | 60.36614 | 24.26816 | 23243 ft | 408 kts | 248° |
| 2026-04-21 12:26 | 60.35374 | 24.21616 | 23855 ft | 412 kts | 248° |
| 2026-04-21 12:26 | 60.34129 | 24.16389 | 24374 ft | 415 kts | 248° |
| 2026-04-21 12:27 | 60.32868 | 24.11114 | 24885 ft | 419 kts | 248° |
| 2026-04-21 12:27 | 60.31595 | 24.05805 | 25390 ft | 422 kts | 248° |
| 2026-04-21 12:27 | 60.30334 | 24.00450 | 25885 ft | 424 kts | 251° |
| 2026-04-21 12:27 | 60.29400 | 23.94833 | 26371 ft | 422 kts | 260° |
| 2026-04-21 12:28 | 60.28778 | 23.89035 | 26864 ft | 424 kts | 262° |
| 2026-04-21 12:28 | 60.28157 | 23.83205 | 27339 ft | 427 kts | 262° |
| 2026-04-21 12:28 | 60.27523 | 23.77333 | 27808 ft | 430 kts | 262° |
| 2026-04-21 12:28 | 60.26875 | 23.71423 | 28284 ft | 433 kts | 262° |
| 2026-04-21 12:29 | 60.26216 | 23.65482 | 28749 ft | 436 kts | 261° |
| 2026-04-21 12:29 | 60.25552 | 23.59503 | 29220 ft | 439 kts | 261° |
| 2026-04-21 12:29 | 60.24884 | 23.53482 | 29672 ft | 442 kts | 261° |
| 2026-04-21 12:29 | 60.24219 | 23.47502 | 30091 ft | 445 kts | 261° |
| 2026-04-21 12:30 | 60.23533 | 23.41357 | 30198 ft | 440 kts | 261° |
| 2026-04-21 12:30 | 60.22869 | 23.35475 | 30206 ft | 422 kts | 261° |
| 2026-04-21 12:30 | 60.22224 | 23.29802 | 30205 ft | 412 kts | 262° |
| 2026-04-21 12:31 | 60.20963 | 23.18721 | 30207 ft | 408 kts | 262° |
| 2026-04-21 12:31 | 60.19700 | 23.07629 | 30208 ft | 407 kts | 262° |
| 2026-04-21 12:32 | 60.18431 | 22.96531 | 30213 ft | 407 kts | 261° |
| 2026-04-21 12:32 | 60.17149 | 22.85463 | 30212 ft | 407 kts | 261° |
| 2026-04-21 12:33 | 60.15850 | 22.74411 | 30209 ft | 407 kts | 261° |
| 2026-04-21 12:33 | 60.14539 | 22.63360 | 30213 ft | 407 kts | 261° |
| 2026-04-21 12:34 | 60.13228 | 22.52323 | 30212 ft | 407 kts | 261° |
| 2026-04-21 12:34 | 60.11914 | 22.41369 | 30215 ft | 407 kts | 261° |
| 2026-04-21 12:35 | 60.10583 | 22.30348 | 30217 ft | 406 kts | 261° |
| 2026-04-21 12:35 | 60.09239 | 22.19341 | 30222 ft | 407 kts | 261° |
| 2026-04-21 12:36 | 60.07891 | 22.08339 | 30227 ft | 406 kts | 261° |
| 2026-04-21 12:36 | 60.06539 | 21.97352 | 30229 ft | 407 kts | 261° |
| 2026-04-21 12:37 | 60.05167 | 21.86365 | 30233 ft | 406 kts | 261° |
| 2026-04-21 12:37 | 60.03786 | 21.75390 | 30242 ft | 406 kts | 261° |
| 2026-04-21 12:38 | 60.02397 | 21.64439 | 30243 ft | 406 kts | 261° |
| 2026-04-21 12:38 | 60.01001 | 21.53492 | 30249 ft | 406 kts | 261° |
| 2026-04-21 12:39 | 59.99594 | 21.42568 | 30255 ft | 406 kts | 261° |
| 2026-04-21 12:39 | 59.98156 | 21.31672 | 30251 ft | 406 kts | 260° |
| 2026-04-21 12:40 | 59.96647 | 21.20799 | 30265 ft | 406 kts | 259° |
| 2026-04-21 12:40 | 59.95107 | 21.09948 | 30265 ft | 406 kts | 259° |
| 2026-04-21 12:41 | 59.93579 | 20.99166 | 29874 ft | 404 kts | 260° |
| 2026-04-21 12:41 | 59.92819 | 20.93778 | 29578 ft | 402 kts | 259° |
| 2026-04-21 12:41 | 59.92056 | 20.88419 | 29291 ft | 400 kts | 259° |
| 2026-04-21 12:41 | 59.91296 | 20.83099 | 29009 ft | 399 kts | 259° |
| 2026-04-21 12:42 | 59.90537 | 20.77799 | 28729 ft | 397 kts | 260° |
| 2026-04-21 12:42 | 59.89779 | 20.72523 | 28447 ft | 395 kts | 259° |
| 2026-04-21 12:42 | 59.89020 | 20.67271 | 28170 ft | 394 kts | 260° |
| 2026-04-21 12:42 | 59.88267 | 20.62041 | 27897 ft | 392 kts | 260° |
| 2026-04-21 12:43 | 59.87517 | 20.56835 | 27629 ft | 390 kts | 260° |
| 2026-04-21 12:43 | 59.86766 | 20.51654 | 27367 ft | 389 kts | 260° |
| 2026-04-21 12:43 | 59.86013 | 20.46486 | 27095 ft | 388 kts | 260° |
| 2026-04-21 12:43 | 59.85263 | 20.41346 | 26832 ft | 386 kts | 260° |
| 2026-04-21 12:44 | 59.84514 | 20.36219 | 26572 ft | 385 kts | 260° |
| 2026-04-21 12:44 | 59.83768 | 20.31116 | 26312 ft | 383 kts | 260° |
| 2026-04-21 12:44 | 59.83025 | 20.26055 | 26015 ft | 379 kts | 260° |
| 2026-04-21 12:44 | 59.82283 | 20.21041 | 25561 ft | 377 kts | 260° |
| 2026-04-21 12:45 | 59.81543 | 20.16056 | 25108 ft | 375 kts | 260° |
| 2026-04-21 12:45 | 59.80814 | 20.11159 | 24640 ft | 374 kts | 260° |
| 2026-04-21 12:45 | 59.80079 | 20.06215 | 24175 ft | 373 kts | 259° |
| 2026-04-21 12:45 | 59.79342 | 20.01286 | 23674 ft | 372 kts | 259° |
| 2026-04-21 12:46 | 59.78605 | 19.96365 | 23164 ft | 370 kts | 259° |
| 2026-04-21 12:46 | 59.77871 | 19.91495 | 22726 ft | 367 kts | 259° |
| 2026-04-21 12:46 | 59.77137 | 19.86668 | 22281 ft | 364 kts | 259° |
| 2026-04-21 12:46 | 59.76407 | 19.81869 | 21837 ft | 362 kts | 258° |
| 2026-04-21 12:47 | 59.75681 | 19.77108 | 21396 ft | 360 kts | 258° |
| 2026-04-21 12:47 | 59.74957 | 19.72366 | 20964 ft | 357 kts | 258° |
| 2026-04-21 12:47 | 59.74263 | 19.67649 | 20547 ft | 355 kts | 259° |
| 2026-04-21 12:47 | 59.73612 | 19.62947 | 20130 ft | 352 kts | 260° |
| 2026-04-21 12:48 | 59.72992 | 19.58321 | 19731 ft | 350 kts | 260° |
| 2026-04-21 12:48 | 59.72371 | 19.53665 | 19320 ft | 349 kts | 259° |
| 2026-04-21 12:48 | 59.71749 | 19.49032 | 18916 ft | 348 kts | 259° |
| 2026-04-21 12:48 | 59.71121 | 19.44416 | 18493 ft | 347 kts | 259° |
| 2026-04-21 12:49 | 59.70487 | 19.39817 | 18067 ft | 345 kts | 259° |
| 2026-04-21 12:49 | 59.69850 | 19.35260 | 17670 ft | 342 kts | 258° |
| 2026-04-21 12:49 | 59.69211 | 19.30731 | 17283 ft | 340 kts | 258° |
| 2026-04-21 12:49 | 59.68579 | 19.26244 | 16890 ft | 338 kts | 258° |
| 2026-04-21 12:50 | 59.67949 | 19.21781 | 16514 ft | 336 kts | 258° |
| 2026-04-21 12:50 | 59.67318 | 19.17344 | 16138 ft | 334 kts | 258° |
| 2026-04-21 12:50 | 59.66689 | 19.12936 | 15768 ft | 332 kts | 258° |
| 2026-04-21 12:50 | 59.66065 | 19.08540 | 15397 ft | 330 kts | 258° |
| 2026-04-21 12:51 | 59.65445 | 19.04169 | 14911 ft | 332 kts | 258° |
| 2026-04-21 12:51 | 59.64817 | 18.99737 | 14387 ft | 336 kts | 258° |
| 2026-04-21 12:51 | 59.64184 | 18.95274 | 13832 ft | 339 kts | 258° |
| 2026-04-21 12:51 | 59.63545 | 18.90808 | 13435 ft | 335 kts | 258° |
| 2026-04-21 12:52 | 59.62905 | 18.86374 | 12907 ft | 333 kts | 257° |
| 2026-04-21 12:52 | 59.62276 | 18.82066 | 12311 ft | 330 kts | 257° |
| 2026-04-21 12:52 | 59.61641 | 18.77758 | 11731 ft | 323 kts | 257° |
| 2026-04-21 12:52 | 59.61021 | 18.73557 | 11244 ft | 314 kts | 257° |
| 2026-04-21 12:53 | 59.60418 | 18.69453 | 10762 ft | 309 kts | 257° |
| 2026-04-21 12:53 | 59.59826 | 18.65397 | 10277 ft | 305 kts | 258° |
| 2026-04-21 12:53 | 59.59248 | 18.61424 | 9849 ft | 298 kts | 258° |
| 2026-04-21 12:53 | 59.58680 | 18.57523 | 9337 ft | 294 kts | 257° |
| 2026-04-21 12:54 | 59.58183 | 18.54141 | 8922 ft | 290 kts | 257° |
| 2026-04-21 12:54 | 59.57625 | 18.50333 | 8463 ft | 287 kts | 258° |
| 2026-04-21 12:54 | 59.57072 | 18.46569 | 8014 ft | 284 kts | 257° |
| 2026-04-21 12:54 | 59.56522 | 18.42836 | 7576 ft | 284 kts | 257° |
| 2026-04-21 12:55 | 59.55968 | 18.39103 | 7136 ft | 284 kts | 257° |
| 2026-04-21 12:55 | 59.55410 | 18.35355 | 6698 ft | 285 kts | 257° |
| 2026-04-21 12:55 | 59.54855 | 18.31651 | 6366 ft | 277 kts | 257° |
| 2026-04-21 12:55 | 59.54318 | 18.28082 | 6118 ft | 267 kts | 257° |
| 2026-04-21 12:56 | 59.53797 | 18.24615 | 5901 ft | 260 kts | 257° |
| 2026-04-21 12:56 | 59.53293 | 18.21250 | 5699 ft | 253 kts | 257° |
| 2026-04-21 12:56 | 59.52940 | 18.17923 | 5493 ft | 245 kts | 264° |
| 2026-04-21 12:56 | 59.52654 | 18.14676 | 5290 ft | 237 kts | 264° |
| 2026-04-21 12:57 | 59.52368 | 18.11534 | 5090 ft | 229 kts | 264° |
| 2026-04-21 12:57 | 59.52088 | 18.08483 | 4863 ft | 224 kts | 264° |
| 2026-04-21 12:57 | 59.51812 | 18.05488 | 4574 ft | 221 kts | 264° |
| 2026-04-21 12:57 | 59.51538 | 18.02553 | 4286 ft | 216 kts | 263° |
| 2026-04-21 12:58 | 59.51267 | 17.99649 | 4001 ft | 214 kts | 263° |
| 2026-04-21 12:58 | 59.51000 | 17.96782 | 3714 ft | 211 kts | 263° |
| 2026-04-21 12:58 | 59.50743 | 17.93960 | 3421 ft | 206 kts | 265° |
| 2026-04-21 12:58 | 59.50877 | 17.91301 | 3198 ft | 192 kts | 293° |
| 2026-04-21 12:59 | 59.51575 | 17.89217 | 3034 ft | 180 kts | 319° |
| 2026-04-21 12:59 | 59.52589 | 17.88035 | 2998 ft | 154 kts | 342° |
| 2026-04-21 12:59 | 59.53561 | 17.87753 | 2989 ft | 132 kts | 360° |
| 2026-04-21 12:59 | 59.54453 | 17.88014 | 2949 ft | 129 kts | 13° |
| 2026-04-21 13:00 | 59.55325 | 17.88424 | 2632 ft | 127 kts | 13° |
| 2026-04-21 13:00 | 59.56185 | 17.88683 | 2387 ft | 123 kts | 9° |
| 2026-04-21 13:00 | 59.57031 | 17.88916 | 2076 ft | 122 kts | 7° |
| 2026-04-21 13:00 | 59.57866 | 17.89187 | 1893 ft | 122 kts | 9° |
| 2026-04-21 13:01 | 59.58700 | 17.89518 | 1610 ft | 122 kts | 11° |
| 2026-04-21 13:01 | 59.59530 | 17.89841 | 1343 ft | 120 kts | 10° |
| 2026-04-21 13:01 | 59.60356 | 17.90122 | 1017 ft | 121 kts | 9° |
| 2026-04-21 13:01 | 59.61173 | 17.90416 | 767 ft | 119 kts | 11° |
| 2026-04-21 13:02 | 59.61984 | 17.90699 | 556 ft | 118 kts | 10° |
| 2026-04-21 13:02 | 59.62791 | 17.90990 | 339 ft | 117 kts | 9° |
| 2026-04-21 13:02 | 59.64320 | 17.91539 | 109 ft | 92 kts | 10° |
| 2026-04-21 13:03 | 59.64781 | 17.91706 | 108 ft | 43 kts | 11° |
| 2026-04-21 13:03 | 59.64933 | 17.91763 | 105 ft | 14 kts | 11° |
| 2026-04-21 13:03 | 59.65038 | 17.91802 | 105 ft | 16 kts | 10° |
| 2026-04-21 13:03 | 59.65151 | 17.91862 | 103 ft | 17 kts | 27° |
| 2026-04-21 13:04 | 59.65246 | 17.92008 | 103 ft | 18 kts | 41° |
| 2026-04-21 13:04 | 59.65327 | 17.92200 | 104 ft | 18 kts | 88° |
| 2026-04-21 13:04 | 59.65274 | 17.92396 | 111 ft | 15 kts | 153° |
| 2026-04-21 13:04 | 59.65178 | 17.92377 | 112 ft | 15 kts | 192° |
| 2026-04-21 13:05 | 59.65065 | 17.92335 | 112 ft | 18 kts | 191° |
| 2026-04-21 13:05 | 59.64937 | 17.92287 | 112 ft | 19 kts | 190° |
| 2026-04-21 13:05 | 59.64804 | 17.92236 | 112 ft | 18 kts | 192° |
| 2026-04-21 13:05 | 59.64675 | 17.92193 | 112 ft | 19 kts | 191° |
| 2026-04-21 13:06 | 59.64547 | 17.92145 | 112 ft | 19 kts | 191° |
| 2026-04-21 13:06 | 59.64418 | 17.92106 | 114 ft | 18 kts | 174° |
| 2026-04-21 13:06 | 59.64352 | 17.92258 | 115 ft | 13 kts | 116° |
| 2026-04-21 13:06 | 59.64309 | 17.92423 | 114 ft | 14 kts | 118° |
| 2026-04-21 13:07 | 59.64266 | 17.92590 | 113 ft | 11 kts | 103° |
| 2026-04-21 13:07 | 59.64297 | 17.92673 | 112 ft | 12 kts | 39° |
| 2026-04-21 13:07 | 59.64364 | 17.92788 | 112 ft | 9 kts | 40° |
| 2026-04-21 13:07 | 59.64375 | 17.92806 | 112 ft | 1 kts | 41° |
| 2026-04-21 13:08 | 59.64376 | 17.92808 | 112 ft | 0 kts | 41° |